createdAt,value
2019-01-08T00:04:10.396Z,74.32
2019-01-08T00:10:05.407Z,67.63
2019-01-08T00:16:00.383Z,58.73
2019-01-08T00:21:55.388Z,52.7
2019-01-08T00:27:50.383Z,52.59
2019-01-08T00:33:45.405Z,56.03
2019-01-08T00:39:40.378Z,61.57
2019-01-08T00:45:35.420Z,52.86
2019-01-08T00:51:30.438Z,48.53
2019-01-08T00:57:25.480Z,64.15
2019-01-08T01:03:20.418Z,56.44
2019-01-08T01:09:15.477Z,50.47
2019-01-08T01:15:10.435Z,45.49
2019-01-08T01:21:05.427Z,54.18
2019-01-08T01:27:00.463Z,53.17
2019-01-08T01:32:55.480Z,59.27
2019-01-08T01:38:50.418Z,50.42
2019-01-08T01:44:45.410Z,49.58
2019-01-08T01:50:40.432Z,40.4
2019-01-08T01:56:35.434Z,52.43
2019-01-08T02:02:30.459Z,51.07
2019-01-08T02:08:25.438Z,46.12
2019-01-08T02:14:20.441Z,46.64
2019-01-08T02:20:15.439Z,52.92
2019-01-08T02:26:10.495Z,54.68
2019-01-08T02:32:05.445Z,44.07
2019-01-08T02:38:00.516Z,39.19
2019-01-08T02:43:55.471Z,46.51
2019-01-08T02:49:50.452Z,47.83
2019-01-08T02:55:45.478Z,52.1
2019-01-08T03:01:40.456Z,56.16
2019-01-08T03:07:35.523Z,65.32
2019-01-08T03:13:30.454Z,60.61
2019-01-08T03:19:25.491Z,54.19
2019-01-08T03:25:20.515Z,49.17
2019-01-08T03:31:15.638Z,52.86
2019-01-08T03:37:10.480Z,60.74
2019-01-08T03:43:05.507Z,58
2019-01-08T03:49:00.508Z,63.4
2019-01-08T03:54:55.482Z,63.53
2019-01-08T04:00:50.476Z,60.8
2019-01-08T04:06:45.514Z,58.33
2019-01-08T04:12:40.509Z,55.23
2019-01-08T04:18:35.492Z,55.48
2019-01-08T04:24:30.534Z,62.67
2019-01-08T04:30:25.525Z,67.31
2019-01-08T04:36:20.541Z,56.9
2019-01-08T04:42:15.566Z,51.79
2019-01-08T04:48:10.526Z,47.96
2019-01-08T04:54:05.573Z,49.93
2019-01-08T05:00:00.598Z,59.37
2019-01-08T05:05:55.554Z,57.82
2019-01-08T05:11:50.537Z,63.17
2019-01-08T05:17:45.556Z,63.84
2019-01-08T05:23:40.536Z,58.66
2019-01-08T05:29:35.521Z,50.46
2019-01-08T05:35:30.568Z,61.29
2019-01-08T05:41:25.554Z,64.93
2019-01-08T05:47:20.556Z,57.27
2019-01-08T05:53:15.598Z,65.02
2019-01-08T05:59:10.547Z,72.01
2019-01-08T06:05:05.553Z,51.33
2019-01-08T06:11:00.577Z,50.54
2019-01-08T06:16:55.553Z,50.4
2019-01-08T06:22:50.556Z,48.94
2019-01-08T06:28:45.565Z,65.77
2019-01-08T06:34:40.566Z,53.29
2019-01-08T06:40:35.564Z,60.78
2019-01-08T06:46:30.570Z,55.6
2019-01-08T06:52:25.589Z,53.08
2019-01-08T06:58:20.576Z,55.2
2019-01-08T07:04:15.583Z,50.98
2019-01-08T07:10:10.597Z,52.7
2019-01-08T07:16:05.607Z,50.5
2019-01-08T07:22:00.579Z,48.28
2019-01-08T07:27:55.624Z,62.2
2019-01-08T07:33:50.594Z,61.26
2019-01-08T07:39:45.594Z,58.84
2019-01-08T07:45:40.603Z,62.33
2019-01-08T07:51:35.650Z,58.91
2019-01-08T07:57:30.600Z,59.19
2019-01-08T08:03:25.605Z,60.17
2019-01-08T08:09:20.644Z,66.97
2019-01-08T08:15:15.630Z,155.98
2019-01-08T08:21:10.688Z,73.5
2019-01-08T08:27:05.672Z,69.12
2019-01-08T08:33:00.629Z,60.78
2019-01-08T08:38:55.638Z,69.1
2019-01-08T08:44:50.649Z,58.6
2019-01-08T08:50:45.627Z,54.71
2019-01-08T08:56:40.665Z,59.9
2019-01-08T09:02:35.645Z,66.92
2019-01-08T09:08:30.669Z,73.75
2019-01-08T09:14:25.637Z,74.33
2019-01-08T09:20:20.667Z,75.09
2019-01-08T09:26:15.644Z,77.14
2019-01-08T09:32:10.667Z,104.53
2019-01-08T09:38:05.669Z,75.4
2019-01-08T09:44:00.655Z,78.83
2019-01-08T09:49:55.710Z,68.03
2019-01-08T09:55:50.650Z,96.25
2019-01-08T10:01:45.681Z,198.9
2019-01-08T10:07:40.673Z,171.03
2019-01-08T10:13:35.679Z,171.83
2019-01-08T10:19:30.676Z,145.13
2019-01-08T10:25:25.697Z,170.99
2019-01-08T10:31:20.697Z,157.26
2019-01-08T10:37:15.683Z,134
2019-01-08T10:43:10.696Z,189.72
2019-01-08T10:49:05.700Z,193.56
2019-01-08T10:55:00.743Z,176.77
2019-01-08T11:00:55.703Z,161.57
2019-01-08T11:06:50.710Z,129.41
2019-01-08T11:12:45.720Z,120.17
2019-01-08T11:18:40.724Z,108.93
2019-01-08T11:24:35.700Z,122.66
2019-01-08T11:30:30.698Z,143.13
2019-01-08T11:36:25.706Z,144.97
2019-01-08T11:42:20.719Z,140.2
2019-01-08T11:48:15.737Z,138.02
2019-01-08T11:54:10.731Z,145.64
2019-01-08T12:00:05.759Z,164.08
2019-01-08T12:06:00.770Z,179.86
2019-01-08T12:11:55.747Z,181.36
2019-01-08T12:17:50.746Z,197.7
2019-01-08T12:23:45.741Z,197.72
2019-01-08T12:29:40.742Z,199.34
2019-01-08T12:35:35.744Z,185.11
2019-01-08T12:41:30.742Z,206.67
2019-01-08T12:47:25.750Z,191.45
2019-01-08T12:53:20.770Z,178.85
2019-01-08T12:59:15.806Z,186.24
2019-01-08T13:05:10.758Z,192.14
2019-01-08T13:11:05.794Z,174.02
2019-01-08T13:17:00.762Z,192.92
2019-01-08T13:22:55.775Z,191.12
2019-01-08T13:28:50.796Z,176.29
2019-01-08T13:34:45.813Z,193.1
2019-01-08T13:40:40.805Z,206.08
2019-01-08T13:46:35.782Z,195.8
2019-01-08T13:52:30.798Z,180.53
2019-01-08T13:58:25.829Z,193.6
2019-01-08T14:04:20.870Z,205.6
2019-01-08T14:10:15.818Z,200.77
2019-01-08T14:16:10.814Z,189.35
2019-01-08T14:22:05.813Z,177.25
2019-01-08T14:28:00.818Z,183.65
2019-01-08T14:33:55.823Z,190.64
2019-01-08T14:39:50.865Z,193.42
2019-01-08T14:45:45.805Z,182.29
2019-01-08T14:51:40.822Z,181.65
2019-01-08T14:57:35.846Z,197.87
2019-01-08T15:03:30.866Z,197.46
2019-01-08T15:09:25.830Z,203.64
2019-01-08T15:15:20.849Z,202.46
2019-01-08T15:21:15.837Z,219.94
2019-01-08T15:27:10.831Z,229.21
2019-01-08T15:33:05.871Z,218.76
2019-01-08T15:39:00.854Z,201.55
2019-01-08T15:44:55.838Z,228.08
2019-01-08T15:50:50.859Z,207.31
2019-01-08T15:56:45.845Z,192.89
2019-01-08T16:02:40.906Z,198.88
2019-01-08T16:08:35.866Z,211.28
2019-01-08T16:14:30.907Z,210.42
2019-01-08T16:20:25.920Z,205.55
2019-01-08T16:26:20.865Z,188.27
2019-01-08T16:32:15.886Z,197.34
2019-01-08T16:38:10.878Z,198.58
2019-01-08T16:44:05.893Z,184.1
2019-01-08T16:50:00.933Z,127.95
2019-01-08T16:55:55.897Z,113
2019-01-08T17:01:50.895Z,118.06
2019-01-08T17:07:45.901Z,93.66
2019-01-08T17:13:40.913Z,85.13
2019-01-08T17:19:35.916Z,112.2
2019-01-08T17:25:30.936Z,219.48
2019-01-08T17:31:25.889Z,258.48
2019-01-08T17:37:20.905Z,227.67
2019-01-08T17:43:15.915Z,231.31
2019-01-08T17:49:10.927Z,235.38
2019-01-08T17:55:05.941Z,227.6
2019-01-08T18:01:00.950Z,227.19
2019-01-08T18:06:55.953Z,221.31
2019-01-08T18:12:50.932Z,223.79
2019-01-08T18:18:45.914Z,261.22
2019-01-08T18:24:40.919Z,226.76
2019-01-08T18:30:35.930Z,251.1
2019-01-08T18:36:31.047Z,245.22
2019-01-08T18:42:25.989Z,266.49
2019-01-08T18:48:20.977Z,271.9
2019-01-08T18:54:15.948Z,255.93
2019-01-08T19:00:10.957Z,258.97
2019-01-08T19:06:05.944Z,260.52
2019-01-08T19:12:00.961Z,198.1
2019-01-08T19:17:56.007Z,214.92
2019-01-08T19:23:50.968Z,194.78
2019-01-08T19:29:46.057Z,304.64
2019-01-08T19:35:40.975Z,295.47
2019-01-08T19:41:35.993Z,301.67
2019-01-08T19:47:30.979Z,316.85
2019-01-08T19:53:26.013Z,293.13
2019-01-08T19:59:21.065Z,303.53
2019-01-08T20:05:16.034Z,293.6
2019-01-08T20:11:11.015Z,287.23
2019-01-08T20:17:06.127Z,293.57
2019-01-08T20:23:01.007Z,303.81
2019-01-08T20:28:55.989Z,301.23
2019-01-08T20:34:51.024Z,313.85
2019-01-08T20:40:46.019Z,293.25
2019-01-08T20:46:41.004Z,299.52
2019-01-08T20:52:36.000Z,298.35
2019-01-08T20:58:31.066Z,317.56
2019-01-08T21:04:26.010Z,254.02
2019-01-08T21:10:21.019Z,201.48
2019-01-08T21:16:16.044Z,299.66
2019-01-08T21:22:11.012Z,233.29
2019-01-08T21:28:06.077Z,205.84
2019-01-08T21:34:01.077Z,152.76
2019-01-08T21:39:56.051Z,112.37
2019-01-08T21:45:51.045Z,105.75
2019-01-08T21:51:46.078Z,98.05
2019-01-08T21:57:41.036Z,66.24
2019-01-08T22:03:36.074Z,50.06
2019-01-08T22:09:31.069Z,30.7
2019-01-08T22:15:26.056Z,34.86
2019-01-08T22:21:21.044Z,43.94
2019-01-08T22:27:16.099Z,30.97
2019-01-08T22:33:11.085Z,29.26
2019-01-08T22:39:06.071Z,29.68
2019-01-08T22:45:01.118Z,30.6
2019-01-08T22:50:56.072Z,24.12
2019-01-08T22:56:51.096Z,37.42
2019-01-08T23:02:46.100Z,55.21
2019-01-08T23:08:41.084Z,31.94
2019-01-08T23:14:36.099Z,49.09
2019-01-08T23:20:31.079Z,71.21
2019-01-08T23:26:26.103Z,96.26
2019-01-08T23:32:21.106Z,41.17
2019-01-08T23:38:16.170Z,40.17
2019-01-08T23:44:11.111Z,45.56
2019-01-08T23:50:06.108Z,48.75
2019-01-08T23:56:01.105Z,53.85
